Radiance Of The Seas — C6SE7 — position and weather

sailwx.info

Track history (hours):
 
Tides and Currents Weather Stations Pressure Air Temp Water Temp Dewpoint Dewpoint Depression Visibility Wind Speed Wind Dir Waves Ship Positions

Radiance Of The Seas

Operator: Royal Caribbean Cruises Ltd

Last reported at 2017-Jun-23 09:00 UTC. Time now 2017-Jun-24 05:19 UTC.
Position N 59°36' W 147°42'.

Type: Passenger vessel. MMSI: 311319000.

Wind from 270 at 10 knots

Barometer 1029.0 mb
Air temperature 10.0 ° C
Water temperature 12.0 ° C

Date/timePositionNaut miles runAvg speedWind from/ knotsBaromVisibWave heightAir tempDewpointWater temp
2017-Jun-23 09:00N 59°36' W 147°42'37215.5 270 / 101029.0 10.0 12.0
2017-Jun-22 09:00N 58°12' W 136°00'39 1.6 220 / 71027.0 10.0 10.0
2017-Jun-21 09:00N 58°30' W 134°54'12 0.5 120 / 51017.0 10.0 11.0
2017-Jun-20 09:00N 58°18' W 134°54'127 5.5 180 / 101009.0 10.0 11.0
2017-Jun-19 10:00N 56°12' W 134°24'127 5.5 020 / 101008.0 11.0 10.0
2017-Jun-18 11:00N 54°48' W 131°36'2813.9 010 / 51019.0 10.0 12.0
2017-Jun-18 09:00N 54°24' W 131°12'16013.2 340 / 51018.0 10.0 12.0
2017-Jun-17 20:52N 51°57' W 129°23'514.5
2017-Jun-17 20:30N 51°54' W 129°17'714.5
2017-Jun-17 20:00N 51°48' W 129°09'714.4
2017-Jun-17 19:31N 51°43' W 129°02'714.4
2017-Jun-17 19:00N 51°37' W 128°54'714.3
2017-Jun-17 18:30N 51°32' W 128°47'714.3
2017-Jun-17 18:01N 51°26' W 128°39'714.3
2017-Jun-17 17:31N 51°21' W 128°32'714.3
2017-Jun-17 17:01N 51°16' W 128°23'714.2
2017-Jun-17 16:31N 51°12' W 128°15'10713.8
2017-Jun-17 08:46N 50°22' W 125°44'414.8
2017-Jun-17 08:30N 50°22' W 125°38'714.6
2017-Jun-17 08:00N 50°20' W 125°27'713.1
2017-Jun-17 07:30N 50°14' W 125°23'714.2
2017-Jun-17 07:00N 50°08' W 125°21'713.5
2017-Jun-17 06:30N 50°02' W 125°14'714.7
2017-Jun-17 06:00N 49°57' W 125°07'816.4
2017-Jun-17 05:31N 49°51' W 124°58'816.7
2017-Jun-17 05:01N 49°45' W 124°49'816.7
2017-Jun-17 04:30N 49°39' W 124°40'816.5
2017-Jun-17 04:00N 49°33' W 124°31'2616.1
2017-Jun-17 02:24N 49°21' W 123°56'616.2
2017-Jun-17 02:00N 49°20' W 123°46'816.7
2017-Jun-17 01:30N 49°19' W 123°33'816.5
2017-Jun-17 01:00N 49°19' W 123°20'815.0
2017-Jun-17 00:30N 49°19' W 123°09'2 4.5
2017-Jun-16 23:59N 49°17' W 123°06'0 0.0
2017-Jun-16 23:29N 49°17' W 123°06'0 0.0
2017-Jun-16 22:59N 49°17' W 123°06'0 0.0
2017-Jun-16 22:29N 49°17' W 123°06'0 0.0
2017-Jun-16 21:53N 49°17' W 123°06'0 0.0
2017-Jun-16 21:29N 49°17' W 123°06'0 0.0
2017-Jun-16 20:59N 49°17' W 123°06'0 0.0
2017-Jun-16 20:29N 49°17' W 123°06'0 0.0
2017-Jun-16 19:59N 49°17' W 123°06'0 0.0
2017-Jun-16 19:29N 49°17' W 123°06'0 0.0
2017-Jun-16 18:59N 49°17' W 123°06'0 0.0
2017-Jun-16 18:29N 49°17' W 123°06'0 0.0
2017-Jun-16 17:59N 49°17' W 123°06'0 0.0
2017-Jun-16 17:29N 49°17' W 123°06'0 0.0
2017-Jun-16 16:59N 49°17' W 123°06'0 0.0
2017-Jun-16 16:29N 49°17' W 123°06'0 0.0
2017-Jun-16 15:59N 49°17' W 123°06'0 0.0
2017-Jun-16 15:29N 49°17' W 123°06'0 0.0
2017-Jun-16 14:59N 49°17' W 123°06'0 0.0
2017-Jun-16 14:29N 49°17' W 123°06'2 2.0
2017-Jun-16 13:30N 49°19' W 123°08'713.3
2017-Jun-16 13:00N 49°19' W 123°19'613.0
2017-Jun-16 12:30N 49°19' W 123°28'713.3
2017-Jun-16 12:00N 49°19' W 123°39'713.4
2017-Jun-16 11:30N 49°20' W 123°49'1013.4
2017-Jun-16 10:44N 49°23' W 124°04'614.2
2017-Jun-16 10:19N 49°24' W 124°13'413.6
2017-Jun-16 10:00N 49°26' W 124°19'813.7
2017-Jun-16 09:26N 49°30' W 124°29'613.4
2017-Jun-16 09:00N 49°35' W 124°34'713.6
2017-Jun-16 08:30N 49°40' W 124°42'713.5
2017-Jun-16 08:01N 49°44' W 124°49'713.3
2017-Jun-16 07:31N 49°49' W 124°56'713.7
2017-Jun-16 07:00N 49°54' W 125°04'714.1
2017-Jun-16 06:29N 49°59' W 125°12'612.9
2017-Jun-16 06:00N 50°05' W 125°16'713.0
2017-Jun-16 05:30N 50°10' W 125°22'1116.3
2017-Jun-16 04:51N 50°20' W 125°27'11514.4
2017-Jun-15 20:53N 51°09' W 128°11'615.9
2017-Jun-15 20:31N 51°13' W 128°18'815.8
2017-Jun-15 20:00N 51°19' W 128°27'2133.7
2017-Jun-15 20:00N 51°18' W 128°24'1019.7 130 / 50995.0 5.4 12.0 13.0
2017-Jun-15 19:30N 51°24' W 128°36'815.7
2017-Jun-15 18:59N 51°30' W 128°45'2315.7
2017-Jun-15 17:30N 51°48' W 129°09'915.6
2017-Jun-15 16:57N 51°54' W 129°18'296 9.9
2017-Jun-14 11:00N 56°18' W 133°06'4414.6 090 / 81011.0 8.0 9.0
2017-Jun-14 08:00N 55°54' W 134°12'   080 / 141012.0 9.0 10.0
Track history (hours):
 
Tides and Currents Weather Stations Pressure Air Temp Water Temp Dewpoint Dewpoint Depression Visibility Wind Speed Wind Dir Waves Ship Positions

Radiance Of The Seas

Operator: Royal Caribbean Cruises Ltd

Last reported at 2017-Jun-23 09:00 UTC. Time now 2017-Jun-24 05:19 UTC.
Position N 59°36' W 147°42'.

Type: Passenger vessel. MMSI: 311319000.

Wind from 270 at 10 knots

Barometer 1029.0 mb
Air temperature 10.0 ° C
Water temperature 12.0 ° C

Date/timePositionNaut miles runAvg speedWind from/ knotsBaromVisibWave heightAir tempDewpointWater temp
2017-Jun-23 09:00N 59°36' W 147°42'37215.5 270 / 101029.0 10.0 12.0
2017-Jun-22 09:00N 58°12' W 136°00'39 1.6 220 / 71027.0 10.0 10.0
2017-Jun-21 09:00N 58°30' W 134°54'12 0.5 120 / 51017.0 10.0 11.0
2017-Jun-20 09:00N 58°18' W 134°54'127 5.5 180 / 101009.0 10.0 11.0
2017-Jun-19 10:00N 56°12' W 134°24'127 5.5 020 / 101008.0 11.0 10.0
2017-Jun-18 11:00N 54°48' W 131°36'2813.9 010 / 51019.0 10.0 12.0
2017-Jun-18 09:00N 54°24' W 131°12'16013.2 340 / 51018.0 10.0 12.0
2017-Jun-17 20:52N 51°57' W 129°23'514.5
2017-Jun-17 20:30N 51°54' W 129°17'714.5
2017-Jun-17 20:00N 51°48' W 129°09'714.4
2017-Jun-17 19:31N 51°43' W 129°02'714.4
2017-Jun-17 19:00N 51°37' W 128°54'714.3
2017-Jun-17 18:30N 51°32' W 128°47'714.3
2017-Jun-17 18:01N 51°26' W 128°39'714.3
2017-Jun-17 17:31N 51°21' W 128°32'714.3
2017-Jun-17 17:01N 51°16' W 128°23'714.2
2017-Jun-17 16:31N 51°12' W 128°15'10713.8
2017-Jun-17 08:46N 50°22' W 125°44'414.8
2017-Jun-17 08:30N 50°22' W 125°38'714.6
2017-Jun-17 08:00N 50°20' W 125°27'713.1
2017-Jun-17 07:30N 50°14' W 125°23'714.2
2017-Jun-17 07:00N 50°08' W 125°21'713.5
2017-Jun-17 06:30N 50°02' W 125°14'714.7
2017-Jun-17 06:00N 49°57' W 125°07'816.4
2017-Jun-17 05:31N 49°51' W 124°58'816.7
2017-Jun-17 05:01N 49°45' W 124°49'816.7
2017-Jun-17 04:30N 49°39' W 124°40'816.5
2017-Jun-17 04:00N 49°33' W 124°31'2616.1
2017-Jun-17 02:24N 49°21' W 123°56'616.2
2017-Jun-17 02:00N 49°20' W 123°46'816.7
2017-Jun-17 01:30N 49°19' W 123°33'816.5
2017-Jun-17 01:00N 49°19' W 123°20'815.0
2017-Jun-17 00:30N 49°19' W 123°09'2 4.5
2017-Jun-16 23:59N 49°17' W 123°06'0 0.0
2017-Jun-16 23:29N 49°17' W 123°06'0 0.0
2017-Jun-16 22:59N 49°17' W 123°06'0 0.0
2017-Jun-16 22:29N 49°17' W 123°06'0 0.0
2017-Jun-16 21:53N 49°17' W 123°06'0 0.0
2017-Jun-16 21:29N 49°17' W 123°06'0 0.0
2017-Jun-16 20:59N 49°17' W 123°06'0 0.0
2017-Jun-16 20:29N 49°17' W 123°06'0 0.0
2017-Jun-16 19:59N 49°17' W 123°06'0 0.0
2017-Jun-16 19:29N 49°17' W 123°06'0 0.0
2017-Jun-16 18:59N 49°17' W 123°06'0 0.0
2017-Jun-16 18:29N 49°17' W 123°06'0 0.0
2017-Jun-16 17:59N 49°17' W 123°06'0 0.0
2017-Jun-16 17:29N 49°17' W 123°06'0 0.0
2017-Jun-16 16:59N 49°17' W 123°06'0 0.0
2017-Jun-16 16:29N 49°17' W 123°06'0 0.0
2017-Jun-16 15:59N 49°17' W 123°06'0 0.0
2017-Jun-16 15:29N 49°17' W 123°06'0 0.0
2017-Jun-16 14:59N 49°17' W 123°06'0 0.0
2017-Jun-16 14:29N 49°17' W 123°06'2 2.0
2017-Jun-16 13:30N 49°19' W 123°08'713.3
2017-Jun-16 13:00N 49°19' W 123°19'613.0
2017-Jun-16 12:30N 49°19' W 123°28'713.3
2017-Jun-16 12:00N 49°19' W 123°39'713.4
2017-Jun-16 11:30N 49°20' W 123°49'1013.4
2017-Jun-16 10:44N 49°23' W 124°04'614.2
2017-Jun-16 10:19N 49°24' W 124°13'413.6
2017-Jun-16 10:00N 49°26' W 124°19'813.7
2017-Jun-16 09:26N 49°30' W 124°29'613.4
2017-Jun-16 09:00N 49°35' W 124°34'713.6
2017-Jun-16 08:30N 49°40' W 124°42'713.5
2017-Jun-16 08:01N 49°44' W 124°49'713.3
2017-Jun-16 07:31N 49°49' W 124°56'713.7
2017-Jun-16 07:00N 49°54' W 125°04'714.1
2017-Jun-16 06:29N 49°59' W 125°12'612.9
2017-Jun-16 06:00N 50°05' W 125°16'713.0
2017-Jun-16 05:30N 50°10' W 125°22'1116.3
2017-Jun-16 04:51N 50°20' W 125°27'11514.4
2017-Jun-15 20:53N 51°09' W 128°11'615.9
2017-Jun-15 20:31N 51°13' W 128°18'815.8
2017-Jun-15 20:00N 51°19' W 128°27'2133.7
2017-Jun-15 20:00N 51°18' W 128°24'1019.7 130 / 50995.0 5.4 12.0 13.0
2017-Jun-15 19:30N 51°24' W 128°36'815.7
2017-Jun-15 18:59N 51°30' W 128°45'2315.7
2017-Jun-15 17:30N 51°48' W 129°09'915.6
2017-Jun-15 16:57N 51°54' W 129°18'296 9.9
2017-Jun-14 11:00N 56°18' W 133°06'4414.6 090 / 81011.0 8.0 9.0
2017-Jun-14 08:00N 55°54' W 134°12'   080 / 141012.0 9.0 10.0

Dump ship's entire track history